sensor_id;sensor_type;location;lat;lon;timestamp;P1;durP1;ratioP1;P2;durP2;ratioP2
13386;SDS011;6763;48.524;9.044;2022-09-03T00:00:05;2.22;;;1.50;;
13386;SDS011;6763;48.524;9.044;2022-09-03T00:02:38;1.45;;;1.35;;
13386;SDS011;6763;48.524;9.044;2022-09-03T00:05:20;1.40;;;1.30;;
13386;SDS011;6763;48.524;9.044;2022-09-03T00:10:50;1.20;;;1.10;;
13386;SDS011;6763;48.524;9.044;2022-09-03T00:13:22;1.45;;;1.35;;
13386;SDS011;6763;48.524;9.044;2022-09-03T00:15:54;1.30;;;1.10;;
13386;SDS011;6763;48.524;9.044;2022-09-03T00:18:22;1.40;;;1.30;;
13386;SDS011;6763;48.524;9.044;2022-09-03T00:20:58;1.20;;;1.10;;
13386;SDS011;6763;48.524;9.044;2022-09-03T00:23:32;1.48;;;1.02;;
13386;SDS011;6763;48.524;9.044;2022-09-03T00:28:58;1.10;;;1.00;;
13386;SDS011;6763;48.524;9.044;2022-09-03T00:31:38;1.40;;;1.30;;
13386;SDS011;6763;48.524;9.044;2022-09-03T00:34:14;1.45;;;1.30;;
13386;SDS011;6763;48.524;9.044;2022-09-03T00:36:44;1.30;;;1.20;;
13386;SDS011;6763;48.524;9.044;2022-09-03T00:39:11;1.20;;;1.10;;
13386;SDS011;6763;48.524;9.044;2022-09-03T00:53:06;1.10;;;1.00;;
13386;SDS011;6763;48.524;9.044;2022-09-03T00:55:38;1.05;;;1.00;;
13386;SDS011;6763;48.524;9.044;2022-09-03T01:01:04;1.15;;;1.05;;
13386;SDS011;6763;48.524;9.044;2022-09-03T01:06:10;1.00;;;1.00;;
13386;SDS011;6763;48.524;9.044;2022-09-03T01:16:48;1.25;;;1.17;;
13386;SDS011;6763;48.524;9.044;2022-09-03T01:30:11;1.30;;;1.20;;
13386;SDS011;6763;48.524;9.044;2022-09-03T01:35:46;1.60;;;1.10;;
13386;SDS011;6763;48.524;9.044;2022-09-03T01:40:56;1.35;;;1.20;;
13386;SDS011;6763;48.524;9.044;2022-09-03T01:46:43;1.63;;;1.17;;
13386;SDS011;6763;48.524;9.044;2022-09-03T01:51:53;0.98;;;0.80;;
13386;SDS011;6763;48.524;9.044;2022-09-03T01:59:32;1.73;;;1.23;;
13386;SDS011;6763;48.524;9.044;2022-09-03T02:02:03;1.10;;;1.00;;
13386;SDS011;6763;48.524;9.044;2022-09-03T02:04:33;1.30;;;1.20;;
13386;SDS011;6763;48.524;9.044;2022-09-03T02:06:59;2.78;;;1.17;;
13386;SDS011;6763;48.524;9.044;2022-09-03T02:09:26;1.00;;;0.90;;
13386;SDS011;6763;48.524;9.044;2022-09-03T02:11:57;1.25;;;1.15;;
13386;SDS011;6763;48.524;9.044;2022-09-03T02:14:32;1.30;;;1.20;;
13386;SDS011;6763;48.524;9.044;2022-09-03T02:16:59;1.25;;;1.00;;
13386;SDS011;6763;48.524;9.044;2022-09-03T02:19:26;2.45;;;1.30;;
13386;SDS011;6763;48.524;9.044;2022-09-03T02:21:54;1.02;;;0.98;;
13386;SDS011;6763;48.524;9.044;2022-09-03T02:24:21;1.40;;;1.30;;
13386;SDS011;6763;48.524;9.044;2022-09-03T02:26:52;1.38;;;1.10;;
13386;SDS011;6763;48.524;9.044;2022-09-03T02:29:18;1.90;;;1.20;;
13386;SDS011;6763;48.524;9.044;2022-09-03T02:31:44;1.67;;;1.30;;
13386;SDS011;6763;48.524;9.044;2022-09-03T02:34:09;1.13;;;1.08;;
13386;SDS011;6763;48.524;9.044;2022-09-03T02:36:37;1.80;;;1.10;;
13386;SDS011;6763;48.524;9.044;2022-09-03T02:39:05;2.25;;;1.40;;
13386;SDS011;6763;48.524;9.044;2022-09-03T02:41:31;2.45;;;1.05;;
13386;SDS011;6763;48.524;9.044;2022-09-03T02:43:58;1.15;;;1.05;;
13386;SDS011;6763;48.524;9.044;2022-09-03T02:46:34;1.67;;;1.45;;
13386;SDS011;6763;48.524;9.044;2022-09-03T02:49:02;4.88;;;1.52;;
13386;SDS011;6763;48.524;9.044;2022-09-03T02:51:33;1.25;;;1.15;;
13386;SDS011;6763;48.524;9.044;2022-09-03T02:54:00;1.70;;;1.30;;
13386;SDS011;6763;48.524;9.044;2022-09-03T02:56:25;1.40;;;1.20;;
13386;SDS011;6763;48.524;9.044;2022-09-03T02:58:52;1.17;;;1.08;;
13386;SDS011;6763;48.524;9.044;2022-09-03T03:01:18;1.20;;;1.10;;
13386;SDS011;6763;48.524;9.044;2022-09-03T03:03:44;1.02;;;1.00;;
13386;SDS011;6763;48.524;9.044;2022-09-03T03:06:09;1.30;;;1.20;;
13386;SDS011;6763;48.524;9.044;2022-09-03T03:08:36;1.60;;;1.40;;
13386;SDS011;6763;48.524;9.044;2022-09-03T03:11:01;1.42;;;1.33;;
13386;SDS011;6763;48.524;9.044;2022-09-03T03:13:27;1.27;;;1.17;;
13386;SDS011;6763;48.524;9.044;2022-09-03T03:15:55;1.50;;;1.10;;
13386;SDS011;6763;48.524;9.044;2022-09-03T03:18:21;1.33;;;1.23;;
13386;SDS011;6763;48.524;9.044;2022-09-03T03:20:47;1.63;;;1.23;;
13386;SDS011;6763;48.524;9.044;2022-09-03T03:23:12;1.30;;;1.20;;
13386;SDS011;6763;48.524;9.044;2022-09-03T03:25:38;1.23;;;1.13;;
13386;SDS011;6763;48.524;9.044;2022-09-03T03:28:04;1.30;;;1.20;;
13386;SDS011;6763;48.524;9.044;2022-09-03T03:30:30;8.25;;;1.45;;
13386;SDS011;6763;48.524;9.044;2022-09-03T03:32:56;3.45;;;1.35;;
13386;SDS011;6763;48.524;9.044;2022-09-03T03:35:22;1.45;;;1.00;;
13386;SDS011;6763;48.524;9.044;2022-09-03T03:37:48;1.40;;;1.30;;
13386;SDS011;6763;48.524;9.044;2022-09-03T03:40:14;1.08;;;1.00;;
13386;SDS011;6763;48.524;9.044;2022-09-03T03:42:40;1.40;;;1.30;;
13386;SDS011;6763;48.524;9.044;2022-09-03T03:45:06;1.75;;;1.50;;
13386;SDS011;6763;48.524;9.044;2022-09-03T03:47:34;1.60;;;1.35;;
13386;SDS011;6763;48.524;9.044;2022-09-03T03:49:59;1.30;;;1.20;;
13386;SDS011;6763;48.524;9.044;2022-09-03T03:52:25;2.08;;;1.40;;
13386;SDS011;6763;48.524;9.044;2022-09-03T03:54:51;1.77;;;1.30;;
13386;SDS011;6763;48.524;9.044;2022-09-03T03:57:17;1.58;;;1.40;;
13386;SDS011;6763;48.524;9.044;2022-09-03T03:59:44;1.70;;;1.30;;
13386;SDS011;6763;48.524;9.044;2022-09-03T04:02:10;1.83;;;1.33;;
13386;SDS011;6763;48.524;9.044;2022-09-03T04:04:36;1.10;;;1.00;;
13386;SDS011;6763;48.524;9.044;2022-09-03T04:07:01;1.35;;;1.25;;
13386;SDS011;6763;48.524;9.044;2022-09-03T04:09:27;1.50;;;1.40;;
13386;SDS011;6763;48.524;9.044;2022-09-03T04:11:52;2.30;;;1.52;;
13386;SDS011;6763;48.524;9.044;2022-09-03T04:14:17;3.65;;;1.55;;
13386;SDS011;6763;48.524;9.044;2022-09-03T04:16:43;1.25;;;1.15;;
13386;SDS011;6763;48.524;9.044;2022-09-03T04:19:11;1.42;;;1.17;;
13386;SDS011;6763;48.524;9.044;2022-09-03T04:21:37;2.35;;;1.42;;
13386;SDS011;6763;48.524;9.044;2022-09-03T04:24:02;4.22;;;1.30;;
13386;SDS011;6763;48.524;9.044;2022-09-03T04:26:29;1.27;;;1.17;;
13386;SDS011;6763;48.524;9.044;2022-09-03T04:28:56;1.73;;;1.00;;
13386;SDS011;6763;48.524;9.044;2022-09-03T04:31:22;1.10;;;1.00;;
13386;SDS011;6763;48.524;9.044;2022-09-03T04:33:48;0.80;;;0.80;;
13386;SDS011;6763;48.524;9.044;2022-09-03T04:36:14;0.70;;;0.70;;
13386;SDS011;6763;48.524;9.044;2022-09-03T04:38:42;0.60;;;0.60;;
13386;SDS011;6763;48.524;9.044;2022-09-03T04:41:09;0.40;;;0.40;;
13386;SDS011;6763;48.524;9.044;2022-09-03T04:43:36;0.50;;;0.50;;
13386;SDS011;6763;48.524;9.044;2022-09-03T04:46:03;0.45;;;0.45;;
13386;SDS011;6763;48.524;9.044;2022-09-03T04:48:30;0.50;;;0.50;;
13386;SDS011;6763;48.524;9.044;2022-09-03T04:51:04;0.40;;;0.40;;
13386;SDS011;6763;48.524;9.044;2022-09-03T04:53:36;0.60;;;0.60;;
13386;SDS011;6763;48.524;9.044;2022-09-03T04:56:03;0.43;;;0.43;;
13386;SDS011;6763;48.524;9.044;2022-09-03T04:58:43;0.50;;;0.50;;
13386;SDS011;6763;48.524;9.044;2022-09-03T05:01:09;0.73;;;0.73;;
13386;SDS011;6763;48.524;9.044;2022-09-03T05:03:45;0.65;;;0.50;;
13386;SDS011;6763;48.524;9.044;2022-09-03T05:06:12;0.63;;;0.47;;
13386;SDS011;6763;48.524;9.044;2022-09-03T05:08:38;0.60;;;0.60;;
13386;SDS011;6763;48.524;9.044;2022-09-03T05:11:05;0.68;;;0.68;;
13386;SDS011;6763;48.524;9.044;2022-09-03T05:13:31;0.50;;;0.50;;
13386;SDS011;6763;48.524;9.044;2022-09-03T05:15:59;0.45;;;0.45;;
13386;SDS011;6763;48.524;9.044;2022-09-03T05:18:30;0.60;;;0.60;;
13386;SDS011;6763;48.524;9.044;2022-09-03T05:20:56;0.57;;;0.57;;
13386;SDS011;6763;48.524;9.044;2022-09-03T05:23:26;0.77;;;0.60;;
13386;SDS011;6763;48.524;9.044;2022-09-03T05:25:59;0.73;;;0.65;;
13386;SDS011;6763;48.524;9.044;2022-09-03T05:28:27;0.40;;;0.40;;
13386;SDS011;6763;48.524;9.044;2022-09-03T05:30:57;1.08;;;0.60;;
13386;SDS011;6763;48.524;9.044;2022-09-03T05:33:27;0.50;;;0.50;;
13386;SDS011;6763;48.524;9.044;2022-09-03T05:36:15;0.60;;;0.60;;
13386;SDS011;6763;48.524;9.044;2022-09-03T05:38:40;0.50;;;0.50;;
13386;SDS011;6763;48.524;9.044;2022-09-03T05:41:07;0.50;;;0.50;;
13386;SDS011;6763;48.524;9.044;2022-09-03T05:43:35;0.50;;;0.50;;
13386;SDS011;6763;48.524;9.044;2022-09-03T05:46:08;0.68;;;0.68;;
13386;SDS011;6763;48.524;9.044;2022-09-03T05:48:36;0.77;;;0.75;;
13386;SDS011;6763;48.524;9.044;2022-09-03T05:51:03;1.00;;;0.75;;
13386;SDS011;6763;48.524;9.044;2022-09-03T05:53:34;0.60;;;0.50;;
13386;SDS011;6763;48.524;9.044;2022-09-03T05:56:02;0.63;;;0.63;;
13386;SDS011;6763;48.524;9.044;2022-09-03T05:58:35;0.57;;;0.55;;
13386;SDS011;6763;48.524;9.044;2022-09-03T06:03:47;0.82;;;0.73;;
13386;SDS011;6763;48.524;9.044;2022-09-03T06:06:17;0.63;;;0.63;;
13386;SDS011;6763;48.524;9.044;2022-09-03T06:08:42;0.65;;;0.60;;
13386;SDS011;6763;48.524;9.044;2022-09-03T06:11:09;0.60;;;0.60;;
13386;SDS011;6763;48.524;9.044;2022-09-03T06:13:34;0.60;;;0.60;;
13386;SDS011;6763;48.524;9.044;2022-09-03T06:16:01;0.90;;;0.90;;
13386;SDS011;6763;48.524;9.044;2022-09-03T06:18:28;0.52;;;0.52;;
13386;SDS011;6763;48.524;9.044;2022-09-03T06:20:55;0.60;;;0.60;;
13386;SDS011;6763;48.524;9.044;2022-09-03T06:23:21;0.60;;;0.60;;
13386;SDS011;6763;48.524;9.044;2022-09-03T06:25:47;0.80;;;0.77;;
13386;SDS011;6763;48.524;9.044;2022-09-03T06:28:23;1.02;;;0.77;;
13386;SDS011;6763;48.524;9.044;2022-09-03T06:30:51;1.25;;;0.70;;
13386;SDS011;6763;48.524;9.044;2022-09-03T06:33:16;0.70;;;0.70;;
13386;SDS011;6763;48.524;9.044;2022-09-03T06:35:42;1.00;;;0.90;;
13386;SDS011;6763;48.524;9.044;2022-09-03T06:38:08;0.50;;;0.50;;
13386;SDS011;6763;48.524;9.044;2022-09-03T06:40:36;0.50;;;0.50;;
13386;SDS011;6763;48.524;9.044;2022-09-03T06:43:01;1.17;;;0.80;;
13386;SDS011;6763;48.524;9.044;2022-09-03T06:45:28;0.50;;;0.50;;
13386;SDS011;6763;48.524;9.044;2022-09-03T06:47:56;0.60;;;0.60;;
13386;SDS011;6763;48.524;9.044;2022-09-03T06:50:21;0.85;;;0.60;;
13386;SDS011;6763;48.524;9.044;2022-09-03T06:52:51;0.50;;;0.50;;
13386;SDS011;6763;48.524;9.044;2022-09-03T06:55:19;0.68;;;0.68;;
13386;SDS011;6763;48.524;9.044;2022-09-03T06:57:47;0.93;;;0.93;;
13386;SDS011;6763;48.524;9.044;2022-09-03T07:00:13;0.80;;;0.75;;
13386;SDS011;6763;48.524;9.044;2022-09-03T07:02:39;0.70;;;0.70;;
13386;SDS011;6763;48.524;9.044;2022-09-03T07:05:05;0.70;;;0.70;;
13386;SDS011;6763;48.524;9.044;2022-09-03T07:07:33;0.70;;;0.70;;
13386;SDS011;6763;48.524;9.044;2022-09-03T07:09:59;0.70;;;0.70;;
13386;SDS011;6763;48.524;9.044;2022-09-03T07:12:25;3.80;;;0.80;;
13386;SDS011;6763;48.524;9.044;2022-09-03T07:14:51;0.73;;;0.73;;
13386;SDS011;6763;48.524;9.044;2022-09-03T07:17:16;0.70;;;0.70;;
13386;SDS011;6763;48.524;9.044;2022-09-03T07:19:41;0.70;;;0.70;;
13386;SDS011;6763;48.524;9.044;2022-09-03T07:22:07;0.90;;;0.77;;
13386;SDS011;6763;48.524;9.044;2022-09-03T07:24:33;0.60;;;0.60;;
13386;SDS011;6763;48.524;9.044;2022-09-03T07:26:59;0.77;;;0.77;;
13386;SDS011;6763;48.524;9.044;2022-09-03T07:29:25;0.60;;;0.60;;
13386;SDS011;6763;48.524;9.044;2022-09-03T07:31:52;0.63;;;0.63;;
13386;SDS011;6763;48.524;9.044;2022-09-03T07:34:18;0.60;;;0.60;;
13386;SDS011;6763;48.524;9.044;2022-09-03T07:36:45;0.80;;;0.80;;
13386;SDS011;6763;48.524;9.044;2022-09-03T07:39:12;0.55;;;0.55;;
13386;SDS011;6763;48.524;9.044;2022-09-03T07:41:39;0.50;;;0.50;;
13386;SDS011;6763;48.524;9.044;2022-09-03T07:44:09;0.60;;;0.60;;
13386;SDS011;6763;48.524;9.044;2022-09-03T07:46:35;0.90;;;0.60;;
13386;SDS011;6763;48.524;9.044;2022-09-03T07:49:02;0.82;;;0.70;;
13386;SDS011;6763;48.524;9.044;2022-09-03T07:51:33;0.70;;;0.70;;
13386;SDS011;6763;48.524;9.044;2022-09-03T07:54:01;0.95;;;0.70;;
13386;SDS011;6763;48.524;9.044;2022-09-03T07:56:31;0.60;;;0.60;;
13386;SDS011;6763;48.524;9.044;2022-09-03T07:58:57;0.98;;;0.77;;
13386;SDS011;6763;48.524;9.044;2022-09-03T08:01:23;0.93;;;0.75;;
13386;SDS011;6763;48.524;9.044;2022-09-03T08:03:52;0.88;;;0.82;;
13386;SDS011;6763;48.524;9.044;2022-09-03T08:06:20;0.82;;;0.82;;
13386;SDS011;6763;48.524;9.044;2022-09-03T08:08:46;0.80;;;0.80;;
13386;SDS011;6763;48.524;9.044;2022-09-03T08:11:16;1.38;;;1.02;;
13386;SDS011;6763;48.524;9.044;2022-09-03T08:16:09;1.10;;;0.75;;
13386;SDS011;6763;48.524;9.044;2022-09-03T08:18:39;0.73;;;0.70;;
13386;SDS011;6763;48.524;9.044;2022-09-03T08:21:06;0.80;;;0.80;;
13386;SDS011;6763;48.524;9.044;2022-09-03T08:23:40;0.70;;;0.70;;
13386;SDS011;6763;48.524;9.044;2022-09-03T08:26:07;0.93;;;0.73;;
13386;SDS011;6763;48.524;9.044;2022-09-03T08:28:33;0.80;;;0.70;;
13386;SDS011;6763;48.524;9.044;2022-09-03T08:31:05;0.80;;;0.80;;
13386;SDS011;6763;48.524;9.044;2022-09-03T08:33:31;0.73;;;0.73;;
13386;SDS011;6763;48.524;9.044;2022-09-03T08:36:03;0.55;;;0.55;;
13386;SDS011;6763;48.524;9.044;2022-09-03T08:38:31;0.40;;;0.40;;
13386;SDS011;6763;48.524;9.044;2022-09-03T08:46:56;0.60;;;0.60;;
13386;SDS011;6763;48.524;9.044;2022-09-03T08:49:48;0.63;;;0.63;;
13386;SDS011;6763;48.524;9.044;2022-09-03T08:52:31;0.50;;;0.50;;
13386;SDS011;6763;48.524;9.044;2022-09-03T08:57:39;0.85;;;0.70;;
13386;SDS011;6763;48.524;9.044;2022-09-03T09:00:10;1.02;;;0.77;;
13386;SDS011;6763;48.524;9.044;2022-09-03T09:05:24;0.68;;;0.68;;
13386;SDS011;6763;48.524;9.044;2022-09-03T09:08:15;0.63;;;0.60;;
13386;SDS011;6763;48.524;9.044;2022-09-03T09:10:53;0.95;;;0.60;;
13386;SDS011;6763;48.524;9.044;2022-09-03T09:13:47;0.55;;;0.55;;
13386;SDS011;6763;48.524;9.044;2022-09-03T09:16:25;0.60;;;0.60;;
13386;SDS011;6763;48.524;9.044;2022-09-03T09:22:32;0.57;;;0.57;;
13386;SDS011;6763;48.524;9.044;2022-09-03T09:24:45;0.75;;;0.63;;
13386;SDS011;6763;48.524;9.044;2022-09-03T09:27:13;0.40;;;0.40;;
13386;SDS011;6763;48.524;9.044;2022-09-03T09:29:41;0.50;;;0.50;;
13386;SDS011;6763;48.524;9.044;2022-09-03T09:32:10;0.60;;;0.60;;
13386;SDS011;6763;48.524;9.044;2022-09-03T09:34:38;0.50;;;0.50;;
13386;SDS011;6763;48.524;9.044;2022-09-03T09:37:06;0.47;;;0.47;;
13386;SDS011;6763;48.524;9.044;2022-09-03T09:39:34;0.63;;;0.60;;
13386;SDS011;6763;48.524;9.044;2022-09-03T09:42:06;0.38;;;0.38;;
13386;SDS011;6763;48.524;9.044;2022-09-03T09:44:34;0.50;;;0.50;;
13386;SDS011;6763;48.524;9.044;2022-09-03T09:47:09;0.50;;;0.50;;
13386;SDS011;6763;48.524;9.044;2022-09-03T09:49:59;0.40;;;0.40;;
13386;SDS011;6763;48.524;9.044;2022-09-03T09:52:25;0.60;;;0.60;;
13386;SDS011;6763;48.524;9.044;2022-09-03T09:54:53;0.80;;;0.50;;
13386;SDS011;6763;48.524;9.044;2022-09-03T09:57:32;0.80;;;0.80;;
13386;SDS011;6763;48.524;9.044;2022-09-03T10:00:11;0.95;;;0.60;;
13386;SDS011;6763;48.524;9.044;2022-09-03T10:02:45;0.60;;;0.60;;
13386;SDS011;6763;48.524;9.044;2022-09-03T10:08:04;0.57;;;0.57;;
13386;SDS011;6763;48.524;9.044;2022-09-03T10:10:50;0.70;;;0.57;;
13386;SDS011;6763;48.524;9.044;2022-09-03T10:19:04;0.65;;;0.60;;
13386;SDS011;6763;48.524;9.044;2022-09-03T10:21:57;0.50;;;0.50;;
13386;SDS011;6763;48.524;9.044;2022-09-03T10:27:24;0.75;;;0.60;;
13386;SDS011;6763;48.524;9.044;2022-09-03T10:29:50;0.50;;;0.50;;
13386;SDS011;6763;48.524;9.044;2022-09-03T10:40:18;0.70;;;0.70;;
13386;SDS011;6763;48.524;9.044;2022-09-03T10:50:47;0.50;;;0.50;;
13386;SDS011;6763;48.524;9.044;2022-09-03T10:53:46;0.70;;;0.70;;
13386;SDS011;6763;48.524;9.044;2022-09-03T10:56:31;0.65;;;0.60;;
13386;SDS011;6763;48.524;9.044;2022-09-03T11:07:14;0.70;;;0.70;;
13386;SDS011;6763;48.524;9.044;2022-09-03T11:09:47;0.80;;;0.52;;
13386;SDS011;6763;48.524;9.044;2022-09-03T11:15:05;0.68;;;0.68;;
13386;SDS011;6763;48.524;9.044;2022-09-03T11:17:41;0.90;;;0.90;;
13386;SDS011;6763;48.524;9.044;2022-09-03T11:22:38;0.90;;;0.73;;
13386;SDS011;6763;48.524;9.044;2022-09-03T11:25:05;0.60;;;0.60;;
13386;SDS011;6763;48.524;9.044;2022-09-03T11:30:09;0.73;;;0.73;;
13386;SDS011;6763;48.524;9.044;2022-09-03T11:35:43;1.45;;;0.75;;
13386;SDS011;6763;48.524;9.044;2022-09-03T11:40:55;0.40;;;0.40;;
13386;SDS011;6763;48.524;9.044;2022-09-03T11:43:48;0.38;;;0.38;;
13386;SDS011;6763;48.524;9.044;2022-09-03T11:48:46;0.20;;;0.20;;
13386;SDS011;6763;48.524;9.044;2022-09-03T11:53:55;0.47;;;0.47;;
13386;SDS011;6763;48.524;9.044;2022-09-03T11:56:22;0.30;;;0.30;;
13386;SDS011;6763;48.524;9.044;2022-09-03T11:58:58;0.50;;;0.30;;
13386;SDS011;6763;48.524;9.044;2022-09-03T12:01:24;0.40;;;0.40;;
13386;SDS011;6763;48.524;9.044;2022-09-03T12:03:53;0.35;;;0.35;;
13386;SDS011;6763;48.524;9.044;2022-09-03T12:09:19;0.30;;;0.30;;
13386;SDS011;6763;48.524;9.044;2022-09-03T12:18:07;0.40;;;0.40;;
13386;SDS011;6763;48.524;9.044;2022-09-03T12:23:33;0.45;;;0.45;;
13386;SDS011;6763;48.524;9.044;2022-09-03T12:26:00;0.22;;;0.22;;
13386;SDS011;6763;48.524;9.044;2022-09-03T12:28:29;0.20;;;0.20;;
13386;SDS011;6763;48.524;9.044;2022-09-03T12:31:04;0.30;;;0.30;;
13386;SDS011;6763;48.524;9.044;2022-09-03T12:33:45;0.45;;;0.45;;
13386;SDS011;6763;48.524;9.044;2022-09-03T12:36:12;0.22;;;0.22;;
13386;SDS011;6763;48.524;9.044;2022-09-03T12:38:38;2.50;;;0.43;;
13386;SDS011;6763;48.524;9.044;2022-09-03T12:41:03;0.47;;;0.47;;
13386;SDS011;6763;48.524;9.044;2022-09-03T12:43:29;0.30;;;0.30;;
13386;SDS011;6763;48.524;9.044;2022-09-03T12:45:55;0.30;;;0.30;;
13386;SDS011;6763;48.524;9.044;2022-09-03T12:48:20;0.30;;;0.30;;
13386;SDS011;6763;48.524;9.044;2022-09-03T12:50:47;0.30;;;0.30;;
13386;SDS011;6763;48.524;9.044;2022-09-03T12:53:16;0.40;;;0.40;;
13386;SDS011;6763;48.524;9.044;2022-09-03T12:55:50;0.30;;;0.30;;
13386;SDS011;6763;48.524;9.044;2022-09-03T13:04:13;0.40;;;0.40;;
13386;SDS011;6763;48.524;9.044;2022-09-03T13:06:14;0.22;;;0.20;;
13386;SDS011;6763;48.524;9.044;2022-09-03T13:11:24;0.30;;;0.30;;
13386;SDS011;6763;48.524;9.044;2022-09-03T13:13:52;0.30;;;0.30;;
13386;SDS011;6763;48.524;9.044;2022-09-03T13:24:30;0.40;;;0.40;;
13386;SDS011;6763;48.524;9.044;2022-09-03T13:27:15;0.28;;;0.28;;
13386;SDS011;6763;48.524;9.044;2022-09-03T13:29:56;0.32;;;0.30;;
13386;SDS011;6763;48.524;9.044;2022-09-03T13:32:45;0.30;;;0.30;;
13386;SDS011;6763;48.524;9.044;2022-09-03T13:35:36;0.43;;;0.30;;
13386;SDS011;6763;48.524;9.044;2022-09-03T13:40:59;0.35;;;0.35;;
13386;SDS011;6763;48.524;9.044;2022-09-03T13:48:49;0.40;;;0.40;;
13386;SDS011;6763;48.524;9.044;2022-09-03T13:51:45;0.20;;;0.20;;
13386;SDS011;6763;48.524;9.044;2022-09-03T14:02:30;0.30;;;0.30;;
13386;SDS011;6763;48.524;9.044;2022-09-03T14:07:41;0.40;;;0.35;;
13386;SDS011;6763;48.524;9.044;2022-09-03T14:13:01;0.20;;;0.20;;
13386;SDS011;6763;48.524;9.044;2022-09-03T14:21:12;0.25;;;0.25;;
13386;SDS011;6763;48.524;9.044;2022-09-03T14:26:28;0.20;;;0.20;;
13386;SDS011;6763;48.524;9.044;2022-09-03T14:28:58;0.35;;;0.32;;
13386;SDS011;6763;48.524;9.044;2022-09-03T14:34:27;0.28;;;0.28;;
13386;SDS011;6763;48.524;9.044;2022-09-03T14:56:21;0.30;;;0.30;;
13386;SDS011;6763;48.524;9.044;2022-09-03T14:59:24;0.20;;;0.20;;
13386;SDS011;6763;48.524;9.044;2022-09-03T15:07:42;0.20;;;0.20;;
13386;SDS011;6763;48.524;9.044;2022-09-03T15:12:52;0.10;;;0.10;;
13386;SDS011;6763;48.524;9.044;2022-09-03T15:15:22;0.30;;;0.30;;
13386;SDS011;6763;48.524;9.044;2022-09-03T15:20:45;0.30;;;0.30;;
13386;SDS011;6763;48.524;9.044;2022-09-03T15:31:26;0.30;;;0.30;;
13386;SDS011;6763;48.524;9.044;2022-09-03T15:34:00;0.20;;;0.20;;
13386;SDS011;6763;48.524;9.044;2022-09-03T15:36:39;0.20;;;0.20;;
13386;SDS011;6763;48.524;9.044;2022-09-03T15:39:14;0.30;;;0.30;;
13386;SDS011;6763;48.524;9.044;2022-09-03T15:42:09;0.95;;;0.30;;
13386;SDS011;6763;48.524;9.044;2022-09-03T15:44:59;0.10;;;0.10;;
13386;SDS011;6763;48.524;9.044;2022-09-03T15:50:05;0.30;;;0.30;;
13386;SDS011;6763;48.524;9.044;2022-09-03T15:55:43;0.30;;;0.30;;
13386;SDS011;6763;48.524;9.044;2022-09-03T15:58:20;0.30;;;0.30;;
13386;SDS011;6763;48.524;9.044;2022-09-03T16:00:55;0.20;;;0.20;;
13386;SDS011;6763;48.524;9.044;2022-09-03T16:03:32;0.30;;;0.30;;
13386;SDS011;6763;48.524;9.044;2022-09-03T16:09:21;0.30;;;0.30;;
13386;SDS011;6763;48.524;9.044;2022-09-03T16:22:26;0.38;;;0.22;;
13386;SDS011;6763;48.524;9.044;2022-09-03T16:25:06;0.40;;;0.40;;
13386;SDS011;6763;48.524;9.044;2022-09-03T16:33:27;0.22;;;0.22;;
13386;SDS011;6763;48.524;9.044;2022-09-03T16:44:45;0.60;;;0.40;;
13386;SDS011;6763;48.524;9.044;2022-09-03T17:19:53;0.20;;;0.20;;
13386;SDS011;6763;48.524;9.044;2022-09-03T17:22:35;0.20;;;0.20;;
13386;SDS011;6763;48.524;9.044;2022-09-03T17:25:17;0.25;;;0.25;;
13386;SDS011;6763;48.524;9.044;2022-09-03T17:33:22;0.52;;;0.50;;
13386;SDS011;6763;48.524;9.044;2022-09-03T17:36:22;0.60;;;0.50;;
13386;SDS011;6763;48.524;9.044;2022-09-03T17:41:52;0.15;;;0.15;;
13386;SDS011;6763;48.524;9.044;2022-09-03T17:49:45;0.45;;;0.32;;
13386;SDS011;6763;48.524;9.044;2022-09-03T17:54:57;0.30;;;0.30;;
13386;SDS011;6763;48.524;9.044;2022-09-03T17:57:28;0.30;;;0.30;;
13386;SDS011;6763;48.524;9.044;2022-09-03T18:00:11;0.30;;;0.30;;
13386;SDS011;6763;48.524;9.044;2022-09-03T18:05:26;0.32;;;0.32;;
13386;SDS011;6763;48.524;9.044;2022-09-03T18:08:11;0.52;;;0.52;;
13386;SDS011;6763;48.524;9.044;2022-09-03T18:16:18;0.40;;;0.40;;
13386;SDS011;6763;48.524;9.044;2022-09-03T18:18:51;0.50;;;0.40;;
13386;SDS011;6763;48.524;9.044;2022-09-03T18:21:21;0.82;;;0.60;;
13386;SDS011;6763;48.524;9.044;2022-09-03T18:30:07;0.70;;;0.68;;
13386;SDS011;6763;48.524;9.044;2022-09-03T18:32:53;0.50;;;0.50;;
13386;SDS011;6763;48.524;9.044;2022-09-03T18:35:37;1.27;;;0.85;;
13386;SDS011;6763;48.524;9.044;2022-09-03T18:38:24;0.88;;;0.70;;
13386;SDS011;6763;48.524;9.044;2022-09-03T18:54:01;1.02;;;0.75;;
13386;SDS011;6763;48.524;9.044;2022-09-03T18:56:56;1.55;;;1.00;;
13386;SDS011;6763;48.524;9.044;2022-09-03T18:59:57;1.95;;;0.90;;
13386;SDS011;6763;48.524;9.044;2022-09-03T19:05:58;1.40;;;0.93;;
13386;SDS011;6763;48.524;9.044;2022-09-03T19:12:10;1.20;;;1.10;;
13386;SDS011;6763;48.524;9.044;2022-09-03T19:15:23;0.77;;;0.77;;
13386;SDS011;6763;48.524;9.044;2022-09-03T19:18:21;0.85;;;0.82;;
13386;SDS011;6763;48.524;9.044;2022-09-03T19:21:26;1.25;;;1.15;;
13386;SDS011;6763;48.524;9.044;2022-09-03T19:24:15;1.00;;;0.90;;
13386;SDS011;6763;48.524;9.044;2022-09-03T19:30:22;2.47;;;0.90;;
13386;SDS011;6763;48.524;9.044;2022-09-03T19:33:14;2.22;;;1.15;;
13386;SDS011;6763;48.524;9.044;2022-09-03T19:42:22;1.20;;;0.80;;
13386;SDS011;6763;48.524;9.044;2022-09-03T19:45:37;2.05;;;1.02;;
13386;SDS011;6763;48.524;9.044;2022-09-03T19:51:17;1.05;;;0.95;;
13386;SDS011;6763;48.524;9.044;2022-09-03T19:54:05;0.98;;;0.80;;
13386;SDS011;6763;48.524;9.044;2022-09-03T19:56:53;1.20;;;0.75;;
13386;SDS011;6763;48.524;9.044;2022-09-03T19:59:40;1.73;;;1.08;;
13386;SDS011;6763;48.524;9.044;2022-09-03T20:02:26;1.35;;;0.93;;
13386;SDS011;6763;48.524;9.044;2022-09-03T20:05:11;0.98;;;0.90;;
13386;SDS011;6763;48.524;9.044;2022-09-03T20:08:00;0.77;;;0.70;;
13386;SDS011;6763;48.524;9.044;2022-09-03T20:10:45;1.20;;;1.05;;
13386;SDS011;6763;48.524;9.044;2022-09-03T20:13:14;1.13;;;1.02;;
13386;SDS011;6763;48.524;9.044;2022-09-03T20:18:44;0.90;;;0.85;;
13386;SDS011;6763;48.524;9.044;2022-09-03T20:29:26;1.30;;;1.00;;
13386;SDS011;6763;48.524;9.044;2022-09-03T20:34:34;0.85;;;0.80;;
13386;SDS011;6763;48.524;9.044;2022-09-03T20:37:27;0.90;;;0.90;;
13386;SDS011;6763;48.524;9.044;2022-09-03T20:45:49;1.48;;;0.70;;
13386;SDS011;6763;48.524;9.044;2022-09-03T20:51:05;1.20;;;1.10;;
13386;SDS011;6763;48.524;9.044;2022-09-03T20:56:29;1.35;;;1.10;;
13386;SDS011;6763;48.524;9.044;2022-09-03T20:59:16;1.25;;;1.10;;
13386;SDS011;6763;48.524;9.044;2022-09-03T21:01:49;1.25;;;1.00;;
13386;SDS011;6763;48.524;9.044;2022-09-03T21:20:44;0.88;;;0.82;;
13386;SDS011;6763;48.524;9.044;2022-09-03T21:25:54;0.68;;;0.68;;
13386;SDS011;6763;48.524;9.044;2022-09-03T21:28:37;0.80;;;0.80;;
13386;SDS011;6763;48.524;9.044;2022-09-03T21:31:18;0.98;;;0.90;;
13386;SDS011;6763;48.524;9.044;2022-09-03T21:33:50;11.15;;;1.88;;
13386;SDS011;6763;48.524;9.044;2022-09-03T21:39:11;2.00;;;1.75;;
13386;SDS011;6763;48.524;9.044;2022-09-03T21:41:40;2.25;;;1.75;;
13386;SDS011;6763;48.524;9.044;2022-09-03T21:44:36;1.73;;;1.60;;
13386;SDS011;6763;48.524;9.044;2022-09-03T21:47:13;4.68;;;1.45;;
13386;SDS011;6763;48.524;9.044;2022-09-03T21:49:50;2.00;;;1.63;;
13386;SDS011;6763;48.524;9.044;2022-09-03T21:52:18;2.13;;;1.92;;
13386;SDS011;6763;48.524;9.044;2022-09-03T21:54:49;5.47;;;2.05;;
13386;SDS011;6763;48.524;9.044;2022-09-03T21:57:33;6.03;;;2.47;;
13386;SDS011;6763;48.524;9.044;2022-09-03T22:00:27;2.38;;;2.10;;
13386;SDS011;6763;48.524;9.044;2022-09-03T22:02:58;5.32;;;2.13;;
13386;SDS011;6763;48.524;9.044;2022-09-03T22:05:25;2.55;;;1.70;;
13386;SDS011;6763;48.524;9.044;2022-09-03T22:10:55;4.00;;;1.95;;
13386;SDS011;6763;48.524;9.044;2022-09-03T22:16:08;4.28;;;2.95;;
13386;SDS011;6763;48.524;9.044;2022-09-03T22:18:47;3.28;;;2.53;;
13386;SDS011;6763;48.524;9.044;2022-09-03T22:23:58;3.33;;;2.53;;
13386;SDS011;6763;48.524;9.044;2022-09-03T22:27:02;3.45;;;2.47;;
13386;SDS011;6763;48.524;9.044;2022-09-03T22:29:45;3.75;;;2.45;;